sensor_id;sensor_type;location;lat;lon;timestamp;P1;durP1;ratioP1;P2;durP2;ratioP2
56201;SDS011;42117;50.360;3.508;2022-12-18T00:01:21;36.33;;;14.20;;
56201;SDS011;42117;50.360;3.508;2022-12-18T00:03:47;33.05;;;16.90;;
56201;SDS011;42117;50.360;3.508;2022-12-18T00:06:14;34.05;;;17.55;;
56201;SDS011;42117;50.360;3.508;2022-12-18T00:08:40;42.83;;;17.50;;
56201;SDS011;42117;50.360;3.508;2022-12-18T00:11:07;32.47;;;15.98;;
56201;SDS011;42117;50.360;3.508;2022-12-18T00:13:34;31.63;;;15.70;;
56201;SDS011;42117;50.360;3.508;2022-12-18T00:16:04;31.83;;;13.10;;
56201;SDS011;42117;50.360;3.508;2022-12-18T00:18:31;29.27;;;15.63;;
56201;SDS011;42117;50.360;3.508;2022-12-18T00:21:01;32.05;;;12.95;;
56201;SDS011;42117;50.360;3.508;2022-12-18T00:23:27;32.72;;;14.43;;
56201;SDS011;42117;50.360;3.508;2022-12-18T00:25:54;27.25;;;15.10;;
56201;SDS011;42117;50.360;3.508;2022-12-18T00:28:20;31.70;;;17.20;;
56201;SDS011;42117;50.360;3.508;2022-12-18T00:30:46;22.75;;;13.13;;
56201;SDS011;42117;50.360;3.508;2022-12-18T00:33:12;31.67;;;16.50;;
56201;SDS011;42117;50.360;3.508;2022-12-18T00:35:38;35.40;;;15.73;;
56201;SDS011;42117;50.360;3.508;2022-12-18T00:38:04;28.88;;;14.18;;
56201;SDS011;42117;50.360;3.508;2022-12-18T00:40:31;23.50;;;14.48;;
56201;SDS011;42117;50.360;3.508;2022-12-18T00:42:57;27.15;;;15.23;;
56201;SDS011;42117;50.360;3.508;2022-12-18T00:48:26;29.77;;;13.55;;
56201;SDS011;42117;50.360;3.508;2022-12-18T00:50:52;29.15;;;15.75;;
56201;SDS011;42117;50.360;3.508;2022-12-18T00:53:18;35.72;;;14.13;;
56201;SDS011;42117;50.360;3.508;2022-12-18T00:55:45;36.58;;;14.40;;
56201;SDS011;42117;50.360;3.508;2022-12-18T00:58:11;32.80;;;14.98;;
56201;SDS011;42117;50.360;3.508;2022-12-18T01:00:38;30.85;;;13.90;;
56201;SDS011;42117;50.360;3.508;2022-12-18T01:03:04;19.83;;;11.25;;
56201;SDS011;42117;50.360;3.508;2022-12-18T01:05:30;21.30;;;12.15;;
56201;SDS011;42117;50.360;3.508;2022-12-18T01:07:56;14.57;;;10.20;;
56201;SDS011;42117;50.360;3.508;2022-12-18T01:10:23;9.18;;;6.97;;
56201;SDS011;42117;50.360;3.508;2022-12-18T01:12:49;18.83;;;10.23;;
56201;SDS011;42117;50.360;3.508;2022-12-18T01:15:15;13.43;;;8.52;;
56201;SDS011;42117;50.360;3.508;2022-12-18T01:17:42;13.55;;;9.63;;
56201;SDS011;42117;50.360;3.508;2022-12-18T01:20:09;15.82;;;9.18;;
56201;SDS011;42117;50.360;3.508;2022-12-18T01:22:35;30.02;;;12.70;;
56201;SDS011;42117;50.360;3.508;2022-12-18T01:25:02;12.23;;;8.20;;
56201;SDS011;42117;50.360;3.508;2022-12-18T01:27:29;24.08;;;13.18;;
56201;SDS011;42117;50.360;3.508;2022-12-18T01:29:55;16.88;;;11.02;;
56201;SDS011;42117;50.360;3.508;2022-12-18T01:32:21;19.80;;;9.73;;
56201;SDS011;42117;50.360;3.508;2022-12-18T01:34:47;38.00;;;12.35;;
56201;SDS011;42117;50.360;3.508;2022-12-18T01:37:13;55.05;;;13.13;;
56201;SDS011;42117;50.360;3.508;2022-12-18T01:39:39;30.98;;;12.82;;
56201;SDS011;42117;50.360;3.508;2022-12-18T01:42:10;41.22;;;12.75;;
56201;SDS011;42117;50.360;3.508;2022-12-18T01:44:51;34.28;;;14.60;;
56201;SDS011;42117;50.360;3.508;2022-12-18T01:49:47;27.65;;;15.55;;
56201;SDS011;42117;50.360;3.508;2022-12-18T01:52:14;25.88;;;13.13;;
56201;SDS011;42117;50.360;3.508;2022-12-18T01:54:40;23.83;;;13.50;;
56201;SDS011;42117;50.360;3.508;2022-12-18T01:57:06;25.17;;;12.63;;
56201;SDS011;42117;50.360;3.508;2022-12-18T01:59:32;27.17;;;13.38;;
56201;SDS011;42117;50.360;3.508;2022-12-18T02:01:59;24.90;;;10.35;;
56201;SDS011;42117;50.360;3.508;2022-12-18T02:04:26;17.88;;;9.85;;
56201;SDS011;42117;50.360;3.508;2022-12-18T02:07:13;22.95;;;12.82;;
56201;SDS011;42117;50.360;3.508;2022-12-18T02:09:43;27.50;;;13.23;;
56201;SDS011;42117;50.360;3.508;2022-12-18T02:12:13;23.95;;;13.70;;
56201;SDS011;42117;50.360;3.508;2022-12-18T02:17:22;28.05;;;13.02;;
56201;SDS011;42117;50.360;3.508;2022-12-18T02:20:35;16.45;;;9.68;;
56201;SDS011;42117;50.360;3.508;2022-12-18T02:27:27;23.83;;;12.93;;
56201;SDS011;42117;50.360;3.508;2022-12-18T02:29:55;21.88;;;14.88;;
56201;SDS011;42117;50.360;3.508;2022-12-18T02:32:24;24.95;;;10.73;;
56201;SDS011;42117;50.360;3.508;2022-12-18T02:34:51;15.93;;;9.27;;
56201;SDS011;42117;50.360;3.508;2022-12-18T02:37:19;28.05;;;12.57;;
56201;SDS011;42117;50.360;3.508;2022-12-18T02:39:46;34.65;;;13.93;;
56201;SDS011;42117;50.360;3.508;2022-12-18T02:42:12;23.45;;;12.10;;
56201;SDS011;42117;50.360;3.508;2022-12-18T02:44:43;22.10;;;11.23;;
56201;SDS011;42117;50.360;3.508;2022-12-18T02:47:10;24.05;;;11.98;;
56201;SDS011;42117;50.360;3.508;2022-12-18T02:52:36;21.77;;;10.80;;
56201;SDS011;42117;50.360;3.508;2022-12-18T02:55:27;19.70;;;11.45;;
56201;SDS011;42117;50.360;3.508;2022-12-18T03:00:23;15.38;;;10.90;;
56201;SDS011;42117;50.360;3.508;2022-12-18T03:02:57;16.15;;;10.93;;
56201;SDS011;42117;50.360;3.508;2022-12-18T03:08:13;25.80;;;13.23;;
56201;SDS011;42117;50.360;3.508;2022-12-18T03:10:51;12.48;;;9.25;;
56201;SDS011;42117;50.360;3.508;2022-12-18T03:13:27;27.50;;;12.35;;
56201;SDS011;42117;50.360;3.508;2022-12-18T03:15:54;28.77;;;10.65;;
56201;SDS011;42117;50.360;3.508;2022-12-18T03:18:21;26.90;;;13.80;;
56201;SDS011;42117;50.360;3.508;2022-12-18T03:20:49;30.10;;;12.45;;
56201;SDS011;42117;50.360;3.508;2022-12-18T03:23:16;26.80;;;12.18;;
56201;SDS011;42117;50.360;3.508;2022-12-18T03:25:44;15.95;;;9.55;;
56201;SDS011;42117;50.360;3.508;2022-12-18T03:28:12;28.30;;;14.38;;
56201;SDS011;42117;50.360;3.508;2022-12-18T03:30:39;26.45;;;12.18;;
56201;SDS011;42117;50.360;3.508;2022-12-18T03:35:33;21.95;;;12.30;;
56201;SDS011;42117;50.360;3.508;2022-12-18T03:38:01;28.55;;;10.52;;
56201;SDS011;42117;50.360;3.508;2022-12-18T03:40:30;24.35;;;9.80;;
56201;SDS011;42117;50.360;3.508;2022-12-18T03:43:01;21.17;;;9.80;;
56201;SDS011;42117;50.360;3.508;2022-12-18T03:50:30;16.88;;;8.93;;
56201;SDS011;42117;50.360;3.508;2022-12-18T03:53:02;19.08;;;11.32;;
56201;SDS011;42117;50.360;3.508;2022-12-18T03:55:30;16.92;;;8.95;;
56201;SDS011;42117;50.360;3.508;2022-12-18T03:57:58;17.20;;;10.70;;
56201;SDS011;42117;50.360;3.508;2022-12-18T04:00:25;13.45;;;9.23;;
56201;SDS011;42117;50.360;3.508;2022-12-18T04:02:52;26.92;;;10.25;;
56201;SDS011;42117;50.360;3.508;2022-12-18T04:05:19;20.17;;;10.27;;
56201;SDS011;42117;50.360;3.508;2022-12-18T04:07:46;21.02;;;10.10;;
56201;SDS011;42117;50.360;3.508;2022-12-18T04:10:13;33.55;;;10.82;;
56201;SDS011;42117;50.360;3.508;2022-12-18T04:12:40;25.27;;;11.85;;
56201;SDS011;42117;50.360;3.508;2022-12-18T04:15:06;25.00;;;9.90;;
56201;SDS011;42117;50.360;3.508;2022-12-18T04:17:33;14.98;;;11.05;;
56201;SDS011;42117;50.360;3.508;2022-12-18T04:19:59;19.70;;;10.93;;
56201;SDS011;42117;50.360;3.508;2022-12-18T04:22:25;17.77;;;9.60;;
56201;SDS011;42117;50.360;3.508;2022-12-18T04:24:51;21.40;;;14.02;;
56201;SDS011;42117;50.360;3.508;2022-12-18T04:27:17;27.73;;;11.07;;
56201;SDS011;42117;50.360;3.508;2022-12-18T04:29:43;19.10;;;10.23;;
56201;SDS011;42117;50.360;3.508;2022-12-18T04:32:09;27.88;;;11.85;;
56201;SDS011;42117;50.360;3.508;2022-12-18T04:34:35;27.45;;;13.32;;
56201;SDS011;42117;50.360;3.508;2022-12-18T04:37:01;27.33;;;13.25;;
56201;SDS011;42117;50.360;3.508;2022-12-18T04:39:28;23.25;;;14.63;;
56201;SDS011;42117;50.360;3.508;2022-12-18T04:41:54;21.63;;;14.43;;
56201;SDS011;42117;50.360;3.508;2022-12-18T04:44:20;22.17;;;13.00;;
56201;SDS011;42117;50.360;3.508;2022-12-18T04:46:46;39.05;;;9.73;;
56201;SDS011;42117;50.360;3.508;2022-12-18T04:49:12;22.77;;;12.77;;
56201;SDS011;42117;50.360;3.508;2022-12-18T04:51:38;41.35;;;13.10;;
56201;SDS011;42117;50.360;3.508;2022-12-18T04:54:04;19.08;;;10.95;;
56201;SDS011;42117;50.360;3.508;2022-12-18T04:56:30;33.70;;;15.15;;
56201;SDS011;42117;50.360;3.508;2022-12-18T04:58:56;20.40;;;11.30;;
56201;SDS011;42117;50.360;3.508;2022-12-18T05:01:23;15.57;;;9.40;;
56201;SDS011;42117;50.360;3.508;2022-12-18T05:03:50;24.85;;;12.43;;
56201;SDS011;42117;50.360;3.508;2022-12-18T05:06:16;17.00;;;9.52;;
56201;SDS011;42117;50.360;3.508;2022-12-18T05:08:42;19.55;;;11.15;;
56201;SDS011;42117;50.360;3.508;2022-12-18T05:11:09;13.45;;;9.50;;
56201;SDS011;42117;50.360;3.508;2022-12-18T05:13:35;21.40;;;11.45;;
56201;SDS011;42117;50.360;3.508;2022-12-18T05:16:03;22.70;;;11.80;;
56201;SDS011;42117;50.360;3.508;2022-12-18T05:18:29;16.52;;;8.35;;
56201;SDS011;42117;50.360;3.508;2022-12-18T05:20:55;19.10;;;10.18;;
56201;SDS011;42117;50.360;3.508;2022-12-18T05:23:22;19.75;;;9.48;;
56201;SDS011;42117;50.360;3.508;2022-12-18T05:25:56;20.38;;;9.75;;
56201;SDS011;42117;50.360;3.508;2022-12-18T05:28:22;16.92;;;7.85;;
56201;SDS011;42117;50.360;3.508;2022-12-18T05:30:49;19.58;;;9.93;;
56201;SDS011;42117;50.360;3.508;2022-12-18T05:33:16;18.27;;;9.95;;
56201;SDS011;42117;50.360;3.508;2022-12-18T05:35:42;12.73;;;8.60;;
56201;SDS011;42117;50.360;3.508;2022-12-18T05:38:08;26.55;;;11.75;;
56201;SDS011;42117;50.360;3.508;2022-12-18T05:40:34;25.20;;;11.18;;
56201;SDS011;42117;50.360;3.508;2022-12-18T05:43:01;19.35;;;9.10;;
56201;SDS011;42117;50.360;3.508;2022-12-18T05:45:27;13.95;;;8.68;;
56201;SDS011;42117;50.360;3.508;2022-12-18T05:47:53;14.55;;;8.88;;
56201;SDS011;42117;50.360;3.508;2022-12-18T05:50:19;15.77;;;8.52;;
56201;SDS011;42117;50.360;3.508;2022-12-18T05:52:45;17.33;;;9.18;;
56201;SDS011;42117;50.360;3.508;2022-12-18T05:55:11;19.30;;;8.80;;
56201;SDS011;42117;50.360;3.508;2022-12-18T05:57:37;25.52;;;10.02;;
56201;SDS011;42117;50.360;3.508;2022-12-18T06:00:03;21.90;;;9.73;;
56201;SDS011;42117;50.360;3.508;2022-12-18T06:02:29;15.48;;;8.82;;
56201;SDS011;42117;50.360;3.508;2022-12-18T06:04:55;23.63;;;9.77;;
56201;SDS011;42117;50.360;3.508;2022-12-18T06:07:21;21.42;;;9.90;;
56201;SDS011;42117;50.360;3.508;2022-12-18T06:09:48;24.35;;;10.65;;
56201;SDS011;42117;50.360;3.508;2022-12-18T06:12:14;33.90;;;8.50;;
56201;SDS011;42117;50.360;3.508;2022-12-18T06:14:40;21.67;;;8.60;;
56201;SDS011;42117;50.360;3.508;2022-12-18T06:17:06;19.67;;;9.50;;
56201;SDS011;42117;50.360;3.508;2022-12-18T06:19:32;9.55;;;7.25;;
56201;SDS011;42117;50.360;3.508;2022-12-18T06:21:58;10.27;;;7.43;;
56201;SDS011;42117;50.360;3.508;2022-12-18T06:24:24;17.83;;;9.45;;
56201;SDS011;42117;50.360;3.508;2022-12-18T06:26:50;14.77;;;8.00;;
56201;SDS011;42117;50.360;3.508;2022-12-18T06:29:16;18.65;;;9.07;;
56201;SDS011;42117;50.360;3.508;2022-12-18T06:31:42;11.80;;;7.53;;
56201;SDS011;42117;50.360;3.508;2022-12-18T06:34:08;10.90;;;7.88;;
56201;SDS011;42117;50.360;3.508;2022-12-18T06:36:34;13.30;;;8.48;;
56201;SDS011;42117;50.360;3.508;2022-12-18T06:39:00;11.95;;;6.35;;
56201;SDS011;42117;50.360;3.508;2022-12-18T06:41:26;15.90;;;8.52;;
56201;SDS011;42117;50.360;3.508;2022-12-18T06:43:52;16.40;;;6.90;;
56201;SDS011;42117;50.360;3.508;2022-12-18T06:46:18;13.07;;;7.95;;
56201;SDS011;42117;50.360;3.508;2022-12-18T06:48:48;8.57;;;5.60;;
56201;SDS011;42117;50.360;3.508;2022-12-18T06:51:18;19.98;;;8.20;;
56201;SDS011;42117;50.360;3.508;2022-12-18T06:53:44;14.80;;;8.95;;
56201;SDS011;42117;50.360;3.508;2022-12-18T06:56:10;11.63;;;6.25;;
56201;SDS011;42117;50.360;3.508;2022-12-18T06:58:37;12.00;;;6.15;;
56201;SDS011;42117;50.360;3.508;2022-12-18T07:01:04;16.13;;;8.35;;
56201;SDS011;42117;50.360;3.508;2022-12-18T07:03:30;23.35;;;8.82;;
56201;SDS011;42117;50.360;3.508;2022-12-18T07:05:56;14.98;;;5.88;;
56201;SDS011;42117;50.360;3.508;2022-12-18T07:08:22;12.27;;;5.93;;
56201;SDS011;42117;50.360;3.508;2022-12-18T07:10:48;5.88;;;4.50;;
56201;SDS011;42117;50.360;3.508;2022-12-18T07:13:15;8.98;;;6.18;;
56201;SDS011;42117;50.360;3.508;2022-12-18T07:15:42;8.68;;;4.18;;
56201;SDS011;42117;50.360;3.508;2022-12-18T07:18:08;14.98;;;9.20;;
56201;SDS011;42117;50.360;3.508;2022-12-18T07:20:34;17.00;;;7.15;;
56201;SDS011;42117;50.360;3.508;2022-12-18T07:23:02;8.25;;;5.88;;
56201;SDS011;42117;50.360;3.508;2022-12-18T07:25:28;10.55;;;4.70;;
56201;SDS011;42117;50.360;3.508;2022-12-18T07:27:54;6.65;;;5.20;;
56201;SDS011;42117;50.360;3.508;2022-12-18T07:30:20;10.43;;;6.05;;
56201;SDS011;42117;50.360;3.508;2022-12-18T07:32:46;11.35;;;6.40;;
56201;SDS011;42117;50.360;3.508;2022-12-18T07:35:12;10.95;;;7.05;;
56201;SDS011;42117;50.360;3.508;2022-12-18T07:37:38;5.53;;;4.97;;
56201;SDS011;42117;50.360;3.508;2022-12-18T07:40:04;16.48;;;7.70;;
56201;SDS011;42117;50.360;3.508;2022-12-18T07:42:31;14.10;;;7.28;;
56201;SDS011;42117;50.360;3.508;2022-12-18T07:44:57;18.83;;;7.07;;
56201;SDS011;42117;50.360;3.508;2022-12-18T07:47:23;12.82;;;7.25;;
56201;SDS011;42117;50.360;3.508;2022-12-18T07:49:50;24.70;;;8.20;;
56201;SDS011;42117;50.360;3.508;2022-12-18T07:52:16;10.15;;;5.72;;
56201;SDS011;42117;50.360;3.508;2022-12-18T07:54:42;13.93;;;7.65;;
56201;SDS011;42117;50.360;3.508;2022-12-18T07:57:08;11.23;;;5.40;;
56201;SDS011;42117;50.360;3.508;2022-12-18T07:59:34;10.00;;;4.97;;
56201;SDS011;42117;50.360;3.508;2022-12-18T08:02:00;17.13;;;7.82;;
56201;SDS011;42117;50.360;3.508;2022-12-18T08:04:26;12.73;;;7.00;;
56201;SDS011;42117;50.360;3.508;2022-12-18T08:06:52;8.98;;;5.65;;
56201;SDS011;42117;50.360;3.508;2022-12-18T08:09:18;11.82;;;6.40;;
56201;SDS011;42117;50.360;3.508;2022-12-18T08:11:44;18.38;;;5.47;;
56201;SDS011;42117;50.360;3.508;2022-12-18T08:14:10;11.32;;;7.07;;
56201;SDS011;42117;50.360;3.508;2022-12-18T08:16:36;16.33;;;7.57;;
56201;SDS011;42117;50.360;3.508;2022-12-18T08:19:02;15.30;;;7.70;;
56201;SDS011;42117;50.360;3.508;2022-12-18T08:21:29;14.95;;;7.30;;
56201;SDS011;42117;50.360;3.508;2022-12-18T08:23:58;16.73;;;7.07;;
56201;SDS011;42117;50.360;3.508;2022-12-18T08:26:25;16.95;;;6.43;;
56201;SDS011;42117;50.360;3.508;2022-12-18T08:28:53;14.55;;;8.55;;
56201;SDS011;42117;50.360;3.508;2022-12-18T08:31:19;16.48;;;8.60;;
56201;SDS011;42117;50.360;3.508;2022-12-18T08:33:45;21.85;;;8.63;;
56201;SDS011;42117;50.360;3.508;2022-12-18T08:36:11;16.15;;;7.88;;
56201;SDS011;42117;50.360;3.508;2022-12-18T08:38:37;10.48;;;5.93;;
56201;SDS011;42117;50.360;3.508;2022-12-18T08:41:04;12.15;;;7.65;;
56201;SDS011;42117;50.360;3.508;2022-12-18T08:43:31;17.85;;;8.43;;
56201;SDS011;42117;50.360;3.508;2022-12-18T08:46:16;16.65;;;7.68;;
56201;SDS011;42117;50.360;3.508;2022-12-18T08:48:42;20.58;;;9.52;;
56201;SDS011;42117;50.360;3.508;2022-12-18T08:51:08;10.23;;;6.55;;
56201;SDS011;42117;50.360;3.508;2022-12-18T08:53:35;16.17;;;6.10;;
56201;SDS011;42117;50.360;3.508;2022-12-18T08:56:02;13.82;;;6.72;;
56201;SDS011;42117;50.360;3.508;2022-12-18T08:58:28;11.25;;;6.82;;
56201;SDS011;42117;50.360;3.508;2022-12-18T09:00:54;8.00;;;5.22;;
56201;SDS011;42117;50.360;3.508;2022-12-18T09:03:20;12.23;;;8.35;;
56201;SDS011;42117;50.360;3.508;2022-12-18T09:05:47;11.80;;;6.70;;
56201;SDS011;42117;50.360;3.508;2022-12-18T09:08:13;11.57;;;7.40;;
56201;SDS011;42117;50.360;3.508;2022-12-18T09:10:43;8.63;;;3.53;;
56201;SDS011;42117;50.360;3.508;2022-12-18T09:13:10;5.30;;;4.53;;
56201;SDS011;42117;50.360;3.508;2022-12-18T09:15:55;18.05;;;7.82;;
56201;SDS011;42117;50.360;3.508;2022-12-18T09:18:21;12.40;;;8.32;;
56201;SDS011;42117;50.360;3.508;2022-12-18T09:20:48;13.27;;;6.00;;
56201;SDS011;42117;50.360;3.508;2022-12-18T09:23:15;8.88;;;6.78;;
56201;SDS011;42117;50.360;3.508;2022-12-18T09:25:41;12.32;;;7.40;;
56201;SDS011;42117;50.360;3.508;2022-12-18T09:28:11;7.43;;;5.32;;
56201;SDS011;42117;50.360;3.508;2022-12-18T09:30:38;12.80;;;7.47;;
56201;SDS011;42117;50.360;3.508;2022-12-18T09:33:04;10.57;;;6.13;;
56201;SDS011;42117;50.360;3.508;2022-12-18T09:35:30;8.35;;;6.85;;
56201;SDS011;42117;50.360;3.508;2022-12-18T09:37:56;9.73;;;7.35;;
56201;SDS011;42117;50.360;3.508;2022-12-18T09:40:23;15.73;;;8.07;;
56201;SDS011;42117;50.360;3.508;2022-12-18T09:42:57;19.55;;;8.13;;
56201;SDS011;42117;50.360;3.508;2022-12-18T09:45:25;16.73;;;7.93;;
56201;SDS011;42117;50.360;3.508;2022-12-18T09:47:51;15.43;;;7.30;;
56201;SDS011;42117;50.360;3.508;2022-12-18T09:50:23;12.38;;;6.03;;
56201;SDS011;42117;50.360;3.508;2022-12-18T09:52:50;9.63;;;5.90;;
56201;SDS011;42117;50.360;3.508;2022-12-18T09:57:47;8.45;;;5.75;;
56201;SDS011;42117;50.360;3.508;2022-12-18T10:00:16;10.90;;;6.00;;
56201;SDS011;42117;50.360;3.508;2022-12-18T10:02:43;9.20;;;7.35;;
56201;SDS011;42117;50.360;3.508;2022-12-18T10:05:11;8.57;;;5.05;;
56201;SDS011;42117;50.360;3.508;2022-12-18T10:07:53;14.93;;;6.47;;
56201;SDS011;42117;50.360;3.508;2022-12-18T10:10:23;21.50;;;11.18;;
56201;SDS011;42117;50.360;3.508;2022-12-18T10:12:58;16.15;;;9.00;;
56201;SDS011;42117;50.360;3.508;2022-12-18T10:15:44;17.58;;;7.85;;
56201;SDS011;42117;50.360;3.508;2022-12-18T10:20:47;15.45;;;9.65;;
56201;SDS011;42117;50.360;3.508;2022-12-18T10:25:57;5.05;;;4.18;;
56201;SDS011;42117;50.360;3.508;2022-12-18T10:28:25;7.80;;;4.82;;
56201;SDS011;42117;50.360;3.508;2022-12-18T10:30:52;15.40;;;7.72;;
56201;SDS011;42117;50.360;3.508;2022-12-18T10:33:19;17.40;;;7.53;;
56201;SDS011;42117;50.360;3.508;2022-12-18T10:35:46;14.63;;;7.63;;
56201;SDS011;42117;50.360;3.508;2022-12-18T10:43:30;21.80;;;8.77;;
56201;SDS011;42117;50.360;3.508;2022-12-18T10:51:04;12.32;;;5.28;;
56201;SDS011;42117;50.360;3.508;2022-12-18T10:53:31;18.55;;;7.32;;
56201;SDS011;42117;50.360;3.508;2022-12-18T10:55:58;17.70;;;7.85;;
56201;SDS011;42117;50.360;3.508;2022-12-18T10:58:29;9.52;;;7.45;;
56201;SDS011;42117;50.360;3.508;2022-12-18T11:03:33;21.25;;;9.43;;
56201;SDS011;42117;50.360;3.508;2022-12-18T11:06:07;24.20;;;9.20;;
56201;SDS011;42117;50.360;3.508;2022-12-18T11:08:33;15.07;;;7.68;;
56201;SDS011;42117;50.360;3.508;2022-12-18T11:10:59;14.98;;;7.95;;
56201;SDS011;42117;50.360;3.508;2022-12-18T11:13:26;21.05;;;7.50;;
56201;SDS011;42117;50.360;3.508;2022-12-18T11:15:53;13.65;;;7.20;;
56201;SDS011;42117;50.360;3.508;2022-12-18T11:18:27;15.82;;;8.10;;
56201;SDS011;42117;50.360;3.508;2022-12-18T11:20:58;16.23;;;8.63;;
56201;SDS011;42117;50.360;3.508;2022-12-18T11:23:25;13.23;;;7.88;;
56201;SDS011;42117;50.360;3.508;2022-12-18T11:25:59;14.68;;;6.05;;
56201;SDS011;42117;50.360;3.508;2022-12-18T11:28:29;18.73;;;9.73;;
56201;SDS011;42117;50.360;3.508;2022-12-18T11:33:46;15.40;;;7.90;;
56201;SDS011;42117;50.360;3.508;2022-12-18T11:36:14;18.70;;;7.22;;
56201;SDS011;42117;50.360;3.508;2022-12-18T11:38:42;18.08;;;6.93;;
56201;SDS011;42117;50.360;3.508;2022-12-18T11:41:19;20.38;;;9.38;;
56201;SDS011;42117;50.360;3.508;2022-12-18T11:43:54;23.80;;;7.13;;
56201;SDS011;42117;50.360;3.508;2022-12-18T11:46:24;22.58;;;9.27;;
56201;SDS011;42117;50.360;3.508;2022-12-18T11:48:54;26.73;;;9.38;;
56201;SDS011;42117;50.360;3.508;2022-12-18T11:51:32;11.57;;;6.15;;
56201;SDS011;42117;50.360;3.508;2022-12-18T11:53:59;18.65;;;9.65;;
56201;SDS011;42117;50.360;3.508;2022-12-18T11:58:56;13.38;;;6.10;;
56201;SDS011;42117;50.360;3.508;2022-12-18T12:04:16;8.73;;;5.53;;
56201;SDS011;42117;50.360;3.508;2022-12-18T12:14:43;11.77;;;6.60;;
56201;SDS011;42117;50.360;3.508;2022-12-18T12:17:18;20.80;;;9.13;;
56201;SDS011;42117;50.360;3.508;2022-12-18T12:27:40;20.48;;;8.35;;
56201;SDS011;42117;50.360;3.508;2022-12-18T12:30:30;8.75;;;7.28;;
56201;SDS011;42117;50.360;3.508;2022-12-18T12:33:02;7.70;;;5.57;;
56201;SDS011;42117;50.360;3.508;2022-12-18T12:35:43;28.83;;;9.55;;
56201;SDS011;42117;50.360;3.508;2022-12-18T12:38:19;19.10;;;8.45;;
56201;SDS011;42117;50.360;3.508;2022-12-18T12:40:49;20.95;;;7.20;;
56201;SDS011;42117;50.360;3.508;2022-12-18T12:46:04;11.63;;;5.68;;
56201;SDS011;42117;50.360;3.508;2022-12-18T12:51:04;15.10;;;5.85;;
56201;SDS011;42117;50.360;3.508;2022-12-18T12:53:34;19.65;;;8.05;;
56201;SDS011;42117;50.360;3.508;2022-12-18T12:56:01;22.58;;;8.23;;
56201;SDS011;42117;50.360;3.508;2022-12-18T13:03:56;19.48;;;7.15;;
56201;SDS011;42117;50.360;3.508;2022-12-18T13:08:56;19.00;;;9.13;;
56201;SDS011;42117;50.360;3.508;2022-12-18T13:11:36;5.75;;;4.05;;
56201;SDS011;42117;50.360;3.508;2022-12-18T13:14:23;34.38;;;11.25;;
56201;SDS011;42117;50.360;3.508;2022-12-18T13:16:49;22.60;;;8.93;;
56201;SDS011;42117;50.360;3.508;2022-12-18T13:19:22;25.20;;;8.18;;
56201;SDS011;42117;50.360;3.508;2022-12-18T13:21:54;20.55;;;8.32;;
56201;SDS011;42117;50.360;3.508;2022-12-18T13:24:28;19.83;;;8.43;;
56201;SDS011;42117;50.360;3.508;2022-12-18T13:26:56;7.28;;;4.55;;
56201;SDS011;42117;50.360;3.508;2022-12-18T13:32:10;20.83;;;10.88;;
56201;SDS011;42117;50.360;3.508;2022-12-18T13:34:44;16.80;;;7.25;;
56201;SDS011;42117;50.360;3.508;2022-12-18T13:39:55;26.08;;;10.48;;
56201;SDS011;42117;50.360;3.508;2022-12-18T13:42:31;20.48;;;9.98;;
56201;SDS011;42117;50.360;3.508;2022-12-18T13:48:01;25.05;;;10.50;;
56201;SDS011;42117;50.360;3.508;2022-12-18T13:50:28;25.33;;;11.60;;
56201;SDS011;42117;50.360;3.508;2022-12-18T13:52:54;24.15;;;8.32;;
56201;SDS011;42117;50.360;3.508;2022-12-18T13:55:20;25.80;;;11.55;;
56201;SDS011;42117;50.360;3.508;2022-12-18T13:57:47;24.63;;;9.32;;
56201;SDS011;42117;50.360;3.508;2022-12-18T14:00:34;14.73;;;8.57;;
56201;SDS011;42117;50.360;3.508;2022-12-18T14:03:00;25.60;;;10.40;;
56201;SDS011;42117;50.360;3.508;2022-12-18T14:07:52;36.78;;;10.30;;
56201;SDS011;42117;50.360;3.508;2022-12-18T14:10:19;22.98;;;10.15;;
56201;SDS011;42117;50.360;3.508;2022-12-18T14:12:46;21.73;;;9.63;;
56201;SDS011;42117;50.360;3.508;2022-12-18T14:20:19;23.27;;;9.15;;
56201;SDS011;42117;50.360;3.508;2022-12-18T14:22:46;15.65;;;6.80;;
56201;SDS011;42117;50.360;3.508;2022-12-18T14:27:42;21.00;;;9.88;;
56201;SDS011;42117;50.360;3.508;2022-12-18T14:32:34;9.73;;;6.35;;
56201;SDS011;42117;50.360;3.508;2022-12-18T14:35:12;25.90;;;9.63;;
56201;SDS011;42117;50.360;3.508;2022-12-18T14:37:38;20.25;;;8.40;;
56201;SDS011;42117;50.360;3.508;2022-12-18T14:40:04;24.58;;;9.20;;
56201;SDS011;42117;50.360;3.508;2022-12-18T14:42:31;19.05;;;8.57;;
56201;SDS011;42117;50.360;3.508;2022-12-18T14:47:42;21.30;;;7.88;;
56201;SDS011;42117;50.360;3.508;2022-12-18T14:50:12;21.92;;;7.68;;
56201;SDS011;42117;50.360;3.508;2022-12-18T14:52:39;28.67;;;11.38;;
56201;SDS011;42117;50.360;3.508;2022-12-18T14:55:05;37.47;;;9.98;;
56201;SDS011;42117;50.360;3.508;2022-12-18T14:57:35;19.67;;;8.85;;
56201;SDS011;42117;50.360;3.508;2022-12-18T15:00:06;30.35;;;10.00;;
56201;SDS011;42117;50.360;3.508;2022-12-18T15:02:34;21.92;;;8.27;;
56201;SDS011;42117;50.360;3.508;2022-12-18T15:05:03;20.83;;;9.07;;
56201;SDS011;42117;50.360;3.508;2022-12-18T15:07:39;29.73;;;9.75;;
56201;SDS011;42117;50.360;3.508;2022-12-18T15:10:10;17.70;;;9.95;;
56201;SDS011;42117;50.360;3.508;2022-12-18T15:12:38;13.32;;;6.32;;
56201;SDS011;42117;50.360;3.508;2022-12-18T15:15:41;20.27;;;8.05;;
56201;SDS011;42117;50.360;3.508;2022-12-18T15:17:58;30.35;;;11.18;;
56201;SDS011;42117;50.360;3.508;2022-12-18T15:20:24;22.05;;;8.52;;
56201;SDS011;42117;50.360;3.508;2022-12-18T15:22:50;33.20;;;9.85;;
56201;SDS011;42117;50.360;3.508;2022-12-18T15:25:22;17.58;;;8.77;;
56201;SDS011;42117;50.360;3.508;2022-12-18T15:27:53;19.17;;;8.15;;
56201;SDS011;42117;50.360;3.508;2022-12-18T15:30:20;24.15;;;9.18;;
56201;SDS011;42117;50.360;3.508;2022-12-18T15:32:46;11.88;;;7.57;;
56201;SDS011;42117;50.360;3.508;2022-12-18T15:35:15;12.60;;;7.82;;
56201;SDS011;42117;50.360;3.508;2022-12-18T15:37:42;28.50;;;10.82;;
56201;SDS011;42117;50.360;3.508;2022-12-18T15:40:16;17.90;;;8.55;;
56201;SDS011;42117;50.360;3.508;2022-12-18T15:42:42;12.45;;;7.22;;
56201;SDS011;42117;50.360;3.508;2022-12-18T15:45:27;23.40;;;8.48;;
56201;SDS011;42117;50.360;3.508;2022-12-18T15:47:53;15.00;;;8.38;;
56201;SDS011;42117;50.360;3.508;2022-12-18T15:50:19;26.95;;;10.80;;
56201;SDS011;42117;50.360;3.508;2022-12-18T15:52:46;22.88;;;9.13;;
56201;SDS011;42117;50.360;3.508;2022-12-18T15:55:14;21.88;;;10.05;;
56201;SDS011;42117;50.360;3.508;2022-12-18T15:57:59;20.33;;;7.60;;
56201;SDS011;42117;50.360;3.508;2022-12-18T16:00:25;10.60;;;6.50;;
56201;SDS011;42117;50.360;3.508;2022-12-18T16:02:51;10.57;;;5.35;;
56201;SDS011;42117;50.360;3.508;2022-12-18T16:05:17;13.63;;;7.45;;
56201;SDS011;42117;50.360;3.508;2022-12-18T16:07:44;21.38;;;7.65;;
56201;SDS011;42117;50.360;3.508;2022-12-18T16:10:10;9.13;;;4.95;;
56201;SDS011;42117;50.360;3.508;2022-12-18T16:12:36;20.50;;;9.13;;
56201;SDS011;42117;50.360;3.508;2022-12-18T16:15:03;14.57;;;6.85;;
56201;SDS011;42117;50.360;3.508;2022-12-18T16:17:29;25.08;;;8.73;;
56201;SDS011;42117;50.360;3.508;2022-12-18T16:19:55;20.58;;;8.80;;
56201;SDS011;42117;50.360;3.508;2022-12-18T16:22:28;15.85;;;7.95;;
56201;SDS011;42117;50.360;3.508;2022-12-18T16:24:55;15.95;;;5.90;;
56201;SDS011;42117;50.360;3.508;2022-12-18T16:27:22;19.38;;;7.22;;